Hauptseite
METAR-TAF:

METAR-TAF

Flughäfen :

Flughafen Dresden

Dresden, Deutschland

Breite: 51-08N, Länge: 013-45E, Höhe: 230 m

Beobachtung

Neuester Wetterbericht von vor 44 Minuten, um 17:50 UTC
Wind 13 kt aus Ost
Temperatur 1°C
Luftfeuchtigkeit 80%
Luftdruck 1014 hPa
Sichtweite 10 km oder mehr
Aufgelockert bewölkt in der Höhe von 1200 ft
Durchbrochene Bewölkung in der Höhe von 2100 ft

METAR: EDDC 201750Z 10013KT 9999 SCT012 BKN021 01/M02 Q1014 TEMPO BKN012

Zeit: 19:34 (18:34 UTC)

Prognose

Neuester Wetterbericht von vor 1 Stunde und 34 Minuten, um 17:00 UTC
Gültige Prognose vom 20 um 18 UTC bis 21 um 18 UTC
Wind 10 kt aus Ost/Nordost
Sichtweite: 8000 m
Durchbrochene Bewölkung in der Höhe von 1500 ft
Zeitweise
vom 20 um 18 UTC bis 21 um 18 UTC
Durchbrochene Bewölkung in der Höhe von 800 ft

TAF: EDDC 201700Z 2018/2118 07010KT 8000 BKN015 TEMPO 2018/2118 BKN008

Wetterbeobachtungen und Prognosen von mehr als 4000 Flughäfen (METAR und TAF Bericht).

Die verfügbaren Stationen werden durch gelbe und rote Markierungen auf der Karte dargestellt.

Führen Sie die Maus auf sie, um den Namen der Station zu sehen.

Darauf klicken, um die Beobachtung von Wetterbeobachtungen und Prognosen zu sehen.

Um die Karte zu ändern : klicken Sie auf den grünen Tasten mit einem schwarzen Kreuz Zum Vergrößern, auf den grünen Button mit einem Gedankenstrich zu verkleinern, oder auf die grünen Pfeile für benachbarte Karten.


METAR-TAF: